Wellington, CO

8:37 AM MDT on August 31, 2015 (GMT -0600)
La Luna Dairy | | Change Station
CLOSE
Current Station
Personal Weather Station
Location: Wellington, CO
Elevation: 5250 ft
Nearby Weather Stations

Elev 5250 ft 40.72 °N, 105.02 °W | Updated 40 seconds ago

Overcast
Overcast
70.0 °F
Feels Like 70.0 °F
N
2.0
Wind Variable Wind from North
Gusts 17.0 mph

Today
High -- | Low -- °F
--% Chance of Precip.
Yesterday
High -- | Low -- °F
Precip. -- in
6:25 AM 7:34 PM
Waning Gibbous, 95% visible
Pressure 30.08 in
Visibility 10.0 miles
Clouds Few 11000 ft
Dew Point 50 °F
Humidity 49%
Rainfall Not available.
Snow Depth Not available.
UV 1 out of 12
Pollen 9.90 out of 12
Air Quality Not available.
Flu Activity Not available.
METAR KFNL 311415Z AUTO 14005KT 10SM FEW110 21/10 A3008 RMK AO1
Pressure 30.08 in
Visibility 10.0 miles
Clouds Few 11000 ft
Dew Point 50 °F
Humidity 49%
Rainfall Not available.
Snow Depth Not available.
UV 1 out of 12
Pollen 9.90 out of 12
Air Quality Not available.
Flu Activity Not available.
METAR KFNL 311415Z AUTO 14005KT 10SM FEW110 21/10 A3008 RMK AO1

10-Day Weather Forecast

×

Almanac

Astronomy

Aug. 31, 2015 Rise Set
Actual Time
Civil Twilight
Nautical Twilight
Astronomical Twilight
Moon
Length of Visible Light
Length of Day
Tomorrow will be .
, % of the Moon is Illuminated

Today's Extremes

State Highs State Lows

Community

WunderPhotos

Upload Photos

1,851,248 photos uploaded!

WunderBlogs® & News

Nearby

Air Quality

  Air Quality AQ Index Pollutant
Not available.

Snow Depth

Station Depth Elevation

Earthquake Activity

City Distance Mag. Time & Date
Minimum magnitude displayed is 2.5.

Coastal Water Temperatures

Place Temperature

Stations

Nearby Weather Stations

Station Location Temp. Windchill Dew Point Humidity Wind Precip. Elev Updated Type